sensor_id;sensor_type;location;lat;lon;timestamp;P1;durP1;ratioP1;P2;durP2;ratioP2
57309;SDS011;43153;50.984;18.204;2023-11-19T00:02:24;46.30;;;20.10;;
57309;SDS011;43153;50.984;18.204;2023-11-19T00:04:51;44.80;;;20.30;;
57309;SDS011;43153;50.984;18.204;2023-11-19T00:07:18;47.10;;;19.70;;
57309;SDS011;43153;50.984;18.204;2023-11-19T00:09:45;42.10;;;20.00;;
57309;SDS011;43153;50.984;18.204;2023-11-19T00:12:11;46.80;;;19.70;;
57309;SDS011;43153;50.984;18.204;2023-11-19T00:14:38;50.30;;;21.20;;
57309;SDS011;43153;50.984;18.204;2023-11-19T00:17:06;47.20;;;18.90;;
57309;SDS011;43153;50.984;18.204;2023-11-19T00:19:32;45.40;;;21.50;;
57309;SDS011;43153;50.984;18.204;2023-11-19T00:21:58;45.10;;;20.20;;
57309;SDS011;43153;50.984;18.204;2023-11-19T00:24:28;45.00;;;20.50;;
57309;SDS011;43153;50.984;18.204;2023-11-19T00:26:56;47.80;;;20.80;;
57309;SDS011;43153;50.984;18.204;2023-11-19T00:29:22;48.50;;;19.50;;
57309;SDS011;43153;50.984;18.204;2023-11-19T00:31:47;41.70;;;19.60;;
57309;SDS011;43153;50.984;18.204;2023-11-19T00:34:13;46.00;;;19.90;;
57309;SDS011;43153;50.984;18.204;2023-11-19T00:36:40;49.80;;;22.00;;
57309;SDS011;43153;50.984;18.204;2023-11-19T00:39:07;52.40;;;21.60;;
57309;SDS011;43153;50.984;18.204;2023-11-19T00:41:33;48.20;;;21.80;;
57309;SDS011;43153;50.984;18.204;2023-11-19T00:43:59;55.00;;;22.80;;
57309;SDS011;43153;50.984;18.204;2023-11-19T00:46:28;47.50;;;20.90;;
57309;SDS011;43153;50.984;18.204;2023-11-19T00:48:54;52.10;;;23.00;;
57309;SDS011;43153;50.984;18.204;2023-11-19T00:51:20;42.90;;;18.20;;
57309;SDS011;43153;50.984;18.204;2023-11-19T00:53:46;54.70;;;21.40;;
57309;SDS011;43153;50.984;18.204;2023-11-19T00:56:12;46.00;;;20.20;;
57309;SDS011;43153;50.984;18.204;2023-11-19T00:58:41;52.70;;;21.60;;
57309;SDS011;43153;50.984;18.204;2023-11-19T01:01:08;50.20;;;23.10;;
57309;SDS011;43153;50.984;18.204;2023-11-19T01:03:33;46.90;;;18.80;;
57309;SDS011;43153;50.984;18.204;2023-11-19T01:06:00;50.30;;;21.20;;
57309;SDS011;43153;50.984;18.204;2023-11-19T01:08:28;53.10;;;21.40;;
57309;SDS011;43153;50.984;18.204;2023-11-19T01:10:54;43.40;;;17.80;;
57309;SDS011;43153;50.984;18.204;2023-11-19T01:13:20;43.80;;;17.70;;
57309;SDS011;43153;50.984;18.204;2023-11-19T01:15:45;43.50;;;17.70;;
57309;SDS011;43153;50.984;18.204;2023-11-19T01:18:13;42.30;;;17.00;;
57309;SDS011;43153;50.984;18.204;2023-11-19T01:20:39;40.90;;;15.90;;
57309;SDS011;43153;50.984;18.204;2023-11-19T01:23:05;46.20;;;17.00;;
57309;SDS011;43153;50.984;18.204;2023-11-19T01:25:30;39.60;;;17.80;;
57309;SDS011;43153;50.984;18.204;2023-11-19T01:27:57;37.10;;;16.50;;
57309;SDS011;43153;50.984;18.204;2023-11-19T01:30:25;40.50;;;17.70;;
57309;SDS011;43153;50.984;18.204;2023-11-19T01:32:51;39.70;;;16.50;;
57309;SDS011;43153;50.984;18.204;2023-11-19T01:35:17;37.10;;;16.30;;
57309;SDS011;43153;50.984;18.204;2023-11-19T01:37:43;36.00;;;14.90;;
57309;SDS011;43153;50.984;18.204;2023-11-19T01:40:09;34.90;;;14.50;;
57309;SDS011;43153;50.984;18.204;2023-11-19T01:42:40;37.40;;;15.50;;
57309;SDS011;43153;50.984;18.204;2023-11-19T01:45:06;36.60;;;15.20;;
57309;SDS011;43153;50.984;18.204;2023-11-19T01:47:44;35.00;;;15.00;;
57309;SDS011;43153;50.984;18.204;2023-11-19T01:50:11;27.90;;;12.80;;
57309;SDS011;43153;50.984;18.204;2023-11-19T01:52:40;35.50;;;14.20;;
57309;SDS011;43153;50.984;18.204;2023-11-19T01:55:06;33.80;;;14.00;;
57309;SDS011;43153;50.984;18.204;2023-11-19T01:57:36;35.30;;;14.80;;
57309;SDS011;43153;50.984;18.204;2023-11-19T02:00:07;31.90;;;14.40;;
57309;SDS011;43153;50.984;18.204;2023-11-19T02:02:38;37.10;;;14.50;;
57309;SDS011;43153;50.984;18.204;2023-11-19T02:05:07;32.00;;;13.10;;
57309;SDS011;43153;50.984;18.204;2023-11-19T02:07:37;30.30;;;14.30;;
57309;SDS011;43153;50.984;18.204;2023-11-19T02:10:04;33.90;;;14.80;;
57309;SDS011;43153;50.984;18.204;2023-11-19T02:12:31;30.90;;;12.90;;
57309;SDS011;43153;50.984;18.204;2023-11-19T02:15:10;33.00;;;12.40;;
57309;SDS011;43153;50.984;18.204;2023-11-19T02:17:42;29.10;;;12.90;;
57309;SDS011;43153;50.984;18.204;2023-11-19T02:20:09;31.00;;;12.70;;
57309;SDS011;43153;50.984;18.204;2023-11-19T02:22:45;32.80;;;13.00;;
57309;SDS011;43153;50.984;18.204;2023-11-19T02:25:24;32.00;;;14.10;;
57309;SDS011;43153;50.984;18.204;2023-11-19T02:27:55;32.30;;;13.00;;
57309;SDS011;43153;50.984;18.204;2023-11-19T02:30:29;31.60;;;13.10;;
57309;SDS011;43153;50.984;18.204;2023-11-19T02:32:55;30.30;;;12.90;;
57309;SDS011;43153;50.984;18.204;2023-11-19T02:35:23;32.70;;;13.90;;
57309;SDS011;43153;50.984;18.204;2023-11-19T02:37:52;34.90;;;14.30;;
57309;SDS011;43153;50.984;18.204;2023-11-19T02:40:19;35.00;;;13.90;;
57309;SDS011;43153;50.984;18.204;2023-11-19T02:42:45;33.00;;;13.00;;
57309;SDS011;43153;50.984;18.204;2023-11-19T02:45:11;34.00;;;14.30;;
57309;SDS011;43153;50.984;18.204;2023-11-19T02:47:40;33.90;;;13.90;;
57309;SDS011;43153;50.984;18.204;2023-11-19T02:50:16;34.70;;;14.30;;
57309;SDS011;43153;50.984;18.204;2023-11-19T02:52:51;37.40;;;14.70;;
57309;SDS011;43153;50.984;18.204;2023-11-19T02:55:19;33.50;;;13.50;;
57309;SDS011;43153;50.984;18.204;2023-11-19T02:57:45;32.60;;;14.00;;
57309;SDS011;43153;50.984;18.204;2023-11-19T03:00:14;34.90;;;14.40;;
57309;SDS011;43153;50.984;18.204;2023-11-19T03:02:41;34.70;;;13.80;;
57309;SDS011;43153;50.984;18.204;2023-11-19T03:05:16;33.50;;;14.10;;
57309;SDS011;43153;50.984;18.204;2023-11-19T03:07:43;35.30;;;13.60;;
57309;SDS011;43153;50.984;18.204;2023-11-19T03:10:10;34.00;;;14.50;;
57309;SDS011;43153;50.984;18.204;2023-11-19T03:12:40;40.00;;;16.90;;
57309;SDS011;43153;50.984;18.204;2023-11-19T03:15:06;37.00;;;15.60;;
57309;SDS011;43153;50.984;18.204;2023-11-19T03:17:38;36.60;;;15.70;;
57309;SDS011;43153;50.984;18.204;2023-11-19T03:20:05;34.20;;;14.30;;
57309;SDS011;43153;50.984;18.204;2023-11-19T03:22:36;39.30;;;15.70;;
57309;SDS011;43153;50.984;18.204;2023-11-19T03:25:03;36.60;;;16.00;;
57309;SDS011;43153;50.984;18.204;2023-11-19T03:27:29;35.30;;;15.20;;
57309;SDS011;43153;50.984;18.204;2023-11-19T03:29:55;31.70;;;13.60;;
57309;SDS011;43153;50.984;18.204;2023-11-19T03:32:20;38.00;;;14.80;;
57309;SDS011;43153;50.984;18.204;2023-11-19T03:34:46;33.80;;;14.30;;
57309;SDS011;43153;50.984;18.204;2023-11-19T03:37:13;38.10;;;15.80;;
57309;SDS011;43153;50.984;18.204;2023-11-19T03:39:42;41.90;;;15.40;;
57309;SDS011;43153;50.984;18.204;2023-11-19T03:42:08;36.40;;;15.10;;
57309;SDS011;43153;50.984;18.204;2023-11-19T03:44:34;38.60;;;15.50;;
57309;SDS011;43153;50.984;18.204;2023-11-19T03:47:00;33.60;;;15.40;;
57309;SDS011;43153;50.984;18.204;2023-11-19T03:49:26;40.40;;;14.80;;
57309;SDS011;43153;50.984;18.204;2023-11-19T03:51:57;36.20;;;15.50;;
57309;SDS011;43153;50.984;18.204;2023-11-19T03:54:27;39.70;;;14.80;;
57309;SDS011;43153;50.984;18.204;2023-11-19T03:56:56;37.50;;;14.70;;
57309;SDS011;43153;50.984;18.204;2023-11-19T03:59:31;29.70;;;13.50;;
57309;SDS011;43153;50.984;18.204;2023-11-19T04:01:59;32.00;;;13.20;;
57309;SDS011;43153;50.984;18.204;2023-11-19T04:04:26;39.50;;;16.00;;
57309;SDS011;43153;50.984;18.204;2023-11-19T04:06:55;35.50;;;14.00;;
57309;SDS011;43153;50.984;18.204;2023-11-19T04:09:26;34.30;;;14.60;;
57309;SDS011;43153;50.984;18.204;2023-11-19T04:11:52;35.40;;;16.20;;
57309;SDS011;43153;50.984;18.204;2023-11-19T04:14:19;36.10;;;14.70;;
57309;SDS011;43153;50.984;18.204;2023-11-19T04:16:45;33.40;;;12.60;;
57309;SDS011;43153;50.984;18.204;2023-11-19T04:19:14;31.60;;;12.90;;
57309;SDS011;43153;50.984;18.204;2023-11-19T04:21:40;38.30;;;14.70;;
57309;SDS011;43153;50.984;18.204;2023-11-19T04:24:09;34.80;;;14.80;;
57309;SDS011;43153;50.984;18.204;2023-11-19T04:26:44;34.30;;;13.60;;
57309;SDS011;43153;50.984;18.204;2023-11-19T04:29:15;36.40;;;14.60;;
57309;SDS011;43153;50.984;18.204;2023-11-19T04:31:45;31.60;;;12.70;;
57309;SDS011;43153;50.984;18.204;2023-11-19T04:34:12;35.30;;;15.10;;
57309;SDS011;43153;50.984;18.204;2023-11-19T04:36:39;36.70;;;16.60;;
57309;SDS011;43153;50.984;18.204;2023-11-19T04:39:06;33.90;;;14.60;;
57309;SDS011;43153;50.984;18.204;2023-11-19T04:41:50;32.00;;;14.30;;
57309;SDS011;43153;50.984;18.204;2023-11-19T04:44:20;36.50;;;14.40;;
57309;SDS011;43153;50.984;18.204;2023-11-19T04:46:46;30.20;;;12.80;;
57309;SDS011;43153;50.984;18.204;2023-11-19T04:49:14;41.10;;;15.70;;
57309;SDS011;43153;50.984;18.204;2023-11-19T04:51:53;37.20;;;14.40;;
57309;SDS011;43153;50.984;18.204;2023-11-19T04:54:19;34.70;;;14.40;;
57309;SDS011;43153;50.984;18.204;2023-11-19T04:56:49;34.30;;;14.20;;
57309;SDS011;43153;50.984;18.204;2023-11-19T04:59:15;35.90;;;13.60;;
57309;SDS011;43153;50.984;18.204;2023-11-19T05:01:40;38.50;;;16.40;;
57309;SDS011;43153;50.984;18.204;2023-11-19T05:04:07;35.00;;;15.70;;
57309;SDS011;43153;50.984;18.204;2023-11-19T05:06:35;34.80;;;14.60;;
57309;SDS011;43153;50.984;18.204;2023-11-19T05:09:02;35.90;;;15.70;;
57309;SDS011;43153;50.984;18.204;2023-11-19T05:11:33;37.60;;;16.90;;
57309;SDS011;43153;50.984;18.204;2023-11-19T05:13:59;38.00;;;17.40;;
57309;SDS011;43153;50.984;18.204;2023-11-19T05:16:26;34.20;;;15.90;;
57309;SDS011;43153;50.984;18.204;2023-11-19T05:18:52;35.20;;;15.40;;
57309;SDS011;43153;50.984;18.204;2023-11-19T05:21:18;39.40;;;16.00;;
57309;SDS011;43153;50.984;18.204;2023-11-19T05:23:48;37.70;;;15.50;;
57309;SDS011;43153;50.984;18.204;2023-11-19T05:26:17;43.50;;;18.70;;
57309;SDS011;43153;50.984;18.204;2023-11-19T05:28:49;40.30;;;17.30;;
57309;SDS011;43153;50.984;18.204;2023-11-19T05:31:17;37.30;;;16.00;;
57309;SDS011;43153;50.984;18.204;2023-11-19T05:33:44;37.40;;;15.80;;
57309;SDS011;43153;50.984;18.204;2023-11-19T05:36:10;46.30;;;18.70;;
57309;SDS011;43153;50.984;18.204;2023-11-19T05:38:38;38.50;;;15.80;;
57309;SDS011;43153;50.984;18.204;2023-11-19T05:41:06;40.70;;;16.90;;
57309;SDS011;43153;50.984;18.204;2023-11-19T05:43:34;39.50;;;16.20;;
57309;SDS011;43153;50.984;18.204;2023-11-19T05:46:03;37.70;;;16.40;;
57309;SDS011;43153;50.984;18.204;2023-11-19T05:48:31;35.00;;;16.70;;
57309;SDS011;43153;50.984;18.204;2023-11-19T05:50:57;41.40;;;17.50;;
57309;SDS011;43153;50.984;18.204;2023-11-19T05:53:28;40.30;;;16.50;;
57309;SDS011;43153;50.984;18.204;2023-11-19T05:55:56;40.20;;;17.40;;
57309;SDS011;43153;50.984;18.204;2023-11-19T05:58:26;30.80;;;14.20;;
57309;SDS011;43153;50.984;18.204;2023-11-19T06:00:54;33.80;;;15.60;;
57309;SDS011;43153;50.984;18.204;2023-11-19T06:03:22;36.30;;;15.10;;
57309;SDS011;43153;50.984;18.204;2023-11-19T06:05:48;40.30;;;15.50;;
57309;SDS011;43153;50.984;18.204;2023-11-19T06:08:15;35.00;;;15.90;;
57309;SDS011;43153;50.984;18.204;2023-11-19T06:10:43;38.20;;;17.30;;
57309;SDS011;43153;50.984;18.204;2023-11-19T06:13:12;40.40;;;16.50;;
57309;SDS011;43153;50.984;18.204;2023-11-19T06:15:40;39.20;;;16.80;;
57309;SDS011;43153;50.984;18.204;2023-11-19T06:18:11;35.50;;;15.60;;
57309;SDS011;43153;50.984;18.204;2023-11-19T06:20:37;39.30;;;16.20;;
57309;SDS011;43153;50.984;18.204;2023-11-19T06:23:08;36.30;;;16.80;;
57309;SDS011;43153;50.984;18.204;2023-11-19T06:25:36;39.50;;;16.70;;
57309;SDS011;43153;50.984;18.204;2023-11-19T06:28:04;35.90;;;16.10;;
57309;SDS011;43153;50.984;18.204;2023-11-19T06:30:32;35.50;;;16.90;;
57309;SDS011;43153;50.984;18.204;2023-11-19T06:32:58;37.00;;;14.90;;
57309;SDS011;43153;50.984;18.204;2023-11-19T06:35:28;40.80;;;15.70;;
57309;SDS011;43153;50.984;18.204;2023-11-19T06:38:02;32.80;;;15.40;;
57309;SDS011;43153;50.984;18.204;2023-11-19T06:40:32;33.60;;;14.20;;
57309;SDS011;43153;50.984;18.204;2023-11-19T06:43:00;33.70;;;14.30;;
57309;SDS011;43153;50.984;18.204;2023-11-19T06:45:31;34.40;;;15.10;;
57309;SDS011;43153;50.984;18.204;2023-11-19T06:47:57;34.30;;;14.70;;
57309;SDS011;43153;50.984;18.204;2023-11-19T06:50:34;36.70;;;15.10;;
57309;SDS011;43153;50.984;18.204;2023-11-19T06:53:03;34.80;;;15.50;;
57309;SDS011;43153;50.984;18.204;2023-11-19T06:55:40;33.70;;;15.50;;
57309;SDS011;43153;50.984;18.204;2023-11-19T06:58:08;45.30;;;19.60;;
57309;SDS011;43153;50.984;18.204;2023-11-19T07:00:38;31.90;;;14.70;;
57309;SDS011;43153;50.984;18.204;2023-11-19T07:03:06;34.80;;;15.50;;
57309;SDS011;43153;50.984;18.204;2023-11-19T07:05:35;43.40;;;18.40;;
57309;SDS011;43153;50.984;18.204;2023-11-19T07:08:04;37.00;;;16.30;;
57309;SDS011;43153;50.984;18.204;2023-11-19T07:10:32;38.30;;;15.90;;
57309;SDS011;43153;50.984;18.204;2023-11-19T07:13:00;37.80;;;16.40;;
57309;SDS011;43153;50.984;18.204;2023-11-19T07:15:32;43.80;;;19.30;;
57309;SDS011;43153;50.984;18.204;2023-11-19T07:17:58;38.10;;;17.10;;
57309;SDS011;43153;50.984;18.204;2023-11-19T07:20:27;43.30;;;16.00;;
57309;SDS011;43153;50.984;18.204;2023-11-19T07:22:59;35.80;;;16.30;;
57309;SDS011;43153;50.984;18.204;2023-11-19T07:25:25;38.90;;;17.60;;
57309;SDS011;43153;50.984;18.204;2023-11-19T07:27:53;38.20;;;16.70;;
57309;SDS011;43153;50.984;18.204;2023-11-19T07:30:22;37.60;;;18.10;;
57309;SDS011;43153;50.984;18.204;2023-11-19T07:32:48;36.10;;;15.00;;
57309;SDS011;43153;50.984;18.204;2023-11-19T07:35:20;38.30;;;16.30;;
57309;SDS011;43153;50.984;18.204;2023-11-19T07:37:50;37.70;;;15.50;;
57309;SDS011;43153;50.984;18.204;2023-11-19T07:40:18;36.30;;;16.80;;
57309;SDS011;43153;50.984;18.204;2023-11-19T07:42:45;41.90;;;17.90;;
57309;SDS011;43153;50.984;18.204;2023-11-19T07:45:11;34.80;;;16.20;;
57309;SDS011;43153;50.984;18.204;2023-11-19T07:47:40;36.00;;;14.90;;
57309;SDS011;43153;50.984;18.204;2023-11-19T07:50:07;38.40;;;15.70;;
57309;SDS011;43153;50.984;18.204;2023-11-19T07:52:37;35.80;;;16.80;;
57309;SDS011;43153;50.984;18.204;2023-11-19T07:55:03;33.40;;;15.10;;
57309;SDS011;43153;50.984;18.204;2023-11-19T07:57:35;42.00;;;16.60;;
57309;SDS011;43153;50.984;18.204;2023-11-19T08:00:04;35.40;;;16.30;;
57309;SDS011;43153;50.984;18.204;2023-11-19T08:02:34;37.00;;;15.90;;
57309;SDS011;43153;50.984;18.204;2023-11-19T08:05:10;34.40;;;16.40;;
57309;SDS011;43153;50.984;18.204;2023-11-19T08:07:39;39.20;;;16.60;;
57309;SDS011;43153;50.984;18.204;2023-11-19T08:10:07;37.30;;;16.30;;
57309;SDS011;43153;50.984;18.204;2023-11-19T08:12:39;38.40;;;16.80;;
57309;SDS011;43153;50.984;18.204;2023-11-19T08:15:08;36.10;;;16.90;;
57309;SDS011;43153;50.984;18.204;2023-11-19T08:17:34;35.60;;;15.30;;
57309;SDS011;43153;50.984;18.204;2023-11-19T08:20:01;38.90;;;14.90;;
57309;SDS011;43153;50.984;18.204;2023-11-19T08:22:27;36.90;;;16.10;;
57309;SDS011;43153;50.984;18.204;2023-11-19T08:24:52;31.30;;;14.80;;
57309;SDS011;43153;50.984;18.204;2023-11-19T08:27:21;33.20;;;16.50;;
57309;SDS011;43153;50.984;18.204;2023-11-19T08:29:53;38.80;;;17.20;;
57309;SDS011;43153;50.984;18.204;2023-11-19T08:32:22;34.00;;;14.30;;
57309;SDS011;43153;50.984;18.204;2023-11-19T08:34:49;32.80;;;14.20;;
57309;SDS011;43153;50.984;18.204;2023-11-19T08:37:21;30.70;;;14.40;;
57309;SDS011;43153;50.984;18.204;2023-11-19T08:39:50;35.60;;;16.60;;
57309;SDS011;43153;50.984;18.204;2023-11-19T08:42:17;39.50;;;17.00;;
57309;SDS011;43153;50.984;18.204;2023-11-19T08:44:49;36.10;;;17.20;;
57309;SDS011;43153;50.984;18.204;2023-11-19T08:47:17;40.50;;;20.00;;
57309;SDS011;43153;50.984;18.204;2023-11-19T08:49:51;35.20;;;17.00;;
57309;SDS011;43153;50.984;18.204;2023-11-19T08:52:18;33.50;;;15.40;;
57309;SDS011;43153;50.984;18.204;2023-11-19T08:54:47;33.80;;;14.10;;
57309;SDS011;43153;50.984;18.204;2023-11-19T08:57:17;30.70;;;13.70;;
57309;SDS011;43153;50.984;18.204;2023-11-19T08:59:47;30.80;;;14.50;;
57309;SDS011;43153;50.984;18.204;2023-11-19T09:02:19;32.70;;;14.60;;
57309;SDS011;43153;50.984;18.204;2023-11-19T09:04:49;30.30;;;11.90;;
57309;SDS011;43153;50.984;18.204;2023-11-19T09:07:14;31.60;;;13.60;;
57309;SDS011;43153;50.984;18.204;2023-11-19T09:09:40;27.20;;;12.80;;
57309;SDS011;43153;50.984;18.204;2023-11-19T09:12:09;25.00;;;12.40;;
57309;SDS011;43153;50.984;18.204;2023-11-19T09:14:46;28.40;;;12.50;;
57309;SDS011;43153;50.984;18.204;2023-11-19T09:17:29;30.40;;;15.30;;
57309;SDS011;43153;50.984;18.204;2023-11-19T09:20:04;29.70;;;13.10;;
57309;SDS011;43153;50.984;18.204;2023-11-19T09:22:34;29.50;;;14.40;;
57309;SDS011;43153;50.984;18.204;2023-11-19T09:25:00;26.90;;;13.40;;
57309;SDS011;43153;50.984;18.204;2023-11-19T09:27:26;29.20;;;12.60;;
57309;SDS011;43153;50.984;18.204;2023-11-19T09:29:52;26.80;;;12.20;;
57309;SDS011;43153;50.984;18.204;2023-11-19T09:32:24;31.10;;;13.70;;
57309;SDS011;43153;50.984;18.204;2023-11-19T09:34:50;26.10;;;12.00;;
57309;SDS011;43153;50.984;18.204;2023-11-19T09:37:16;23.50;;;11.30;;
57309;SDS011;43153;50.984;18.204;2023-11-19T09:39:43;28.60;;;13.00;;
57309;SDS011;43153;50.984;18.204;2023-11-19T10:22:53;28.60;;;12.70;;
57309;SDS011;43153;50.984;18.204;2023-11-19T10:25:24;26.80;;;11.60;;
57309;SDS011;43153;50.984;18.204;2023-11-19T10:27:52;27.10;;;11.60;;
57309;SDS011;43153;50.984;18.204;2023-11-19T10:30:21;24.30;;;10.70;;
57309;SDS011;43153;50.984;18.204;2023-11-19T10:35:34;29.60;;;12.70;;
57309;SDS011;43153;50.984;18.204;2023-11-19T10:38:17;21.60;;;10.20;;
57309;SDS011;43153;50.984;18.204;2023-11-19T10:40:50;28.80;;;11.70;;
57309;SDS011;43153;50.984;18.204;2023-11-19T10:43:17;22.40;;;9.40;;
57309;SDS011;43153;50.984;18.204;2023-11-19T10:45:43;24.40;;;11.20;;
57309;SDS011;43153;50.984;18.204;2023-11-19T10:48:09;25.20;;;12.20;;
57309;SDS011;43153;50.984;18.204;2023-11-19T10:50:36;21.10;;;10.20;;
57309;SDS011;43153;50.984;18.204;2023-11-19T10:53:03;20.90;;;9.00;;
57309;SDS011;43153;50.984;18.204;2023-11-19T10:55:30;23.60;;;9.90;;
57309;SDS011;43153;50.984;18.204;2023-11-19T10:58:01;24.50;;;9.60;;
57309;SDS011;43153;50.984;18.204;2023-11-19T11:00:39;19.50;;;9.20;;
57309;SDS011;43153;50.984;18.204;2023-11-19T11:03:19;23.30;;;9.30;;
57309;SDS011;43153;50.984;18.204;2023-11-19T11:05:50;23.80;;;9.00;;
57309;SDS011;43153;50.984;18.204;2023-11-19T11:08:18;18.60;;;8.90;;
57309;SDS011;43153;50.984;18.204;2023-11-19T11:10:45;20.50;;;9.30;;
57309;SDS011;43153;50.984;18.204;2023-11-19T11:13:13;22.30;;;9.70;;
57309;SDS011;43153;50.984;18.204;2023-11-19T11:15:39;18.40;;;8.20;;
57309;SDS011;43153;50.984;18.204;2023-11-19T11:18:08;19.20;;;8.40;;
57309;SDS011;43153;50.984;18.204;2023-11-19T11:20:34;21.60;;;8.90;;
57309;SDS011;43153;50.984;18.204;2023-11-19T11:25:58;19.40;;;9.20;;
57309;SDS011;43153;50.984;18.204;2023-11-19T11:28:43;21.40;;;9.60;;
57309;SDS011;43153;50.984;18.204;2023-11-19T11:31:24;20.10;;;8.40;;
57309;SDS011;43153;50.984;18.204;2023-11-19T11:34:08;22.50;;;9.50;;
57309;SDS011;43153;50.984;18.204;2023-11-19T11:40:00;19.50;;;8.70;;
57309;SDS011;43153;50.984;18.204;2023-11-19T11:42:33;26.40;;;11.30;;
57309;SDS011;43153;50.984;18.204;2023-11-19T11:45:11;25.30;;;11.80;;
57309;SDS011;43153;50.984;18.204;2023-11-19T11:50:18;27.80;;;12.60;;
57309;SDS011;43153;50.984;18.204;2023-11-19T11:58:30;34.40;;;16.10;;
57309;SDS011;43153;50.984;18.204;2023-11-19T12:01:14;30.70;;;14.40;;
57309;SDS011;43153;50.984;18.204;2023-11-19T12:03:45;31.40;;;14.90;;
57309;SDS011;43153;50.984;18.204;2023-11-19T12:06:15;38.50;;;17.30;;
57309;SDS011;43153;50.984;18.204;2023-11-19T12:09:11;32.80;;;15.00;;
57309;SDS011;43153;50.984;18.204;2023-11-19T12:11:47;36.60;;;18.70;;
57309;SDS011;43153;50.984;18.204;2023-11-19T12:14:13;34.50;;;16.50;;
57309;SDS011;43153;50.984;18.204;2023-11-19T12:16:45;36.60;;;17.40;;
57309;SDS011;43153;50.984;18.204;2023-11-19T12:19:12;36.60;;;17.20;;
57309;SDS011;43153;50.984;18.204;2023-11-19T12:21:38;33.30;;;14.80;;
57309;SDS011;43153;50.984;18.204;2023-11-19T12:24:07;35.20;;;16.10;;
57309;SDS011;43153;50.984;18.204;2023-11-19T12:26:37;35.50;;;15.90;;
57309;SDS011;43153;50.984;18.204;2023-11-19T12:29:10;36.00;;;17.10;;
57309;SDS011;43153;50.984;18.204;2023-11-19T12:31:44;38.00;;;18.00;;
57309;SDS011;43153;50.984;18.204;2023-11-19T12:34:20;40.10;;;16.10;;
57309;SDS011;43153;50.984;18.204;2023-11-19T12:36:49;42.20;;;16.10;;
57309;SDS011;43153;50.984;18.204;2023-11-19T12:39:19;39.60;;;17.70;;
57309;SDS011;43153;50.984;18.204;2023-11-19T12:41:52;35.00;;;18.00;;
57309;SDS011;43153;50.984;18.204;2023-11-19T12:44:19;37.30;;;17.60;;
57309;SDS011;43153;50.984;18.204;2023-11-19T12:46:46;38.40;;;17.30;;
57309;SDS011;43153;50.984;18.204;2023-11-19T12:49:29;34.30;;;14.80;;
57309;SDS011;43153;50.984;18.204;2023-11-19T12:51:56;33.90;;;16.30;;
57309;SDS011;43153;50.984;18.204;2023-11-19T12:54:36;36.10;;;16.90;;
57309;SDS011;43153;50.984;18.204;2023-11-19T12:57:03;38.70;;;18.70;;
57309;SDS011;43153;50.984;18.204;2023-11-19T12:59:42;40.50;;;19.30;;
57309;SDS011;43153;50.984;18.204;2023-11-19T13:02:47;38.00;;;18.30;;
57309;SDS011;43153;50.984;18.204;2023-11-19T13:05:31;40.20;;;18.80;;
57309;SDS011;43153;50.984;18.204;2023-11-19T13:10:32;43.30;;;21.00;;
57309;SDS011;43153;50.984;18.204;2023-11-19T13:13:03;39.00;;;19.30;;
57309;SDS011;43153;50.984;18.204;2023-11-19T13:15:36;33.50;;;17.00;;
57309;SDS011;43153;50.984;18.204;2023-11-19T13:18:03;37.80;;;18.10;;
57309;SDS011;43153;50.984;18.204;2023-11-19T13:20:30;47.00;;;22.00;;
57309;SDS011;43153;50.984;18.204;2023-11-19T13:22:59;37.30;;;18.10;;
57309;SDS011;43153;50.984;18.204;2023-11-19T13:25:32;40.40;;;20.50;;
57309;SDS011;43153;50.984;18.204;2023-11-19T13:28:00;45.20;;;21.90;;
57309;SDS011;43153;50.984;18.204;2023-11-19T13:30:51;35.70;;;18.00;;
57309;SDS011;43153;50.984;18.204;2023-11-19T13:33:18;36.30;;;18.20;;
57309;SDS011;43153;50.984;18.204;2023-11-19T13:35:49;39.70;;;17.00;;
57309;SDS011;43153;50.984;18.204;2023-11-19T13:38:15;32.60;;;16.60;;
57309;SDS011;43153;50.984;18.204;2023-11-19T13:40:44;36.30;;;18.70;;
57309;SDS011;43153;50.984;18.204;2023-11-19T13:43:10;31.00;;;15.40;;
57309;SDS011;43153;50.984;18.204;2023-11-19T13:45:41;31.00;;;15.70;;
57309;SDS011;43153;50.984;18.204;2023-11-19T13:48:09;36.50;;;16.70;;
57309;SDS011;43153;50.984;18.204;2023-11-19T13:50:35;34.90;;;16.60;;
57309;SDS011;43153;50.984;18.204;2023-11-19T13:53:00;31.10;;;15.10;;
57309;SDS011;43153;50.984;18.204;2023-11-19T13:55:32;35.10;;;16.90;;
57309;SDS011;43153;50.984;18.204;2023-11-19T13:58:02;36.90;;;16.30;;
57309;SDS011;43153;50.984;18.204;2023-11-19T14:00:27;35.10;;;17.20;;
57309;SDS011;43153;50.984;18.204;2023-11-19T14:02:55;36.00;;;16.70;;
57309;SDS011;43153;50.984;18.204;2023-11-19T14:05:24;34.00;;;16.20;;
57309;SDS011;43153;50.984;18.204;2023-11-19T14:07:52;40.40;;;18.40;;
57309;SDS011;43153;50.984;18.204;2023-11-19T14:10:19;30.90;;;15.70;;
57309;SDS011;43153;50.984;18.204;2023-11-19T14:12:48;35.50;;;17.60;;
57309;SDS011;43153;50.984;18.204;2023-11-19T14:15:17;30.60;;;14.60;;
57309;SDS011;43153;50.984;18.204;2023-11-19T14:17:44;29.50;;;13.70;;
57309;SDS011;43153;50.984;18.204;2023-11-19T14:20:14;28.80;;;14.00;;
57309;SDS011;43153;50.984;18.204;2023-11-19T14:22:49;27.40;;;12.80;;
57309;SDS011;43153;50.984;18.204;2023-11-19T14:25:30;31.10;;;14.30;;
57309;SDS011;43153;50.984;18.204;2023-11-19T14:28:05;28.70;;;14.10;;
57309;SDS011;43153;50.984;18.204;2023-11-19T14:30:31;28.30;;;13.90;;
57309;SDS011;43153;50.984;18.204;2023-11-19T14:32:59;27.50;;;13.50;;
57309;SDS011;43153;50.984;18.204;2023-11-19T14:35:26;26.10;;;13.80;;
57309;SDS011;43153;50.984;18.204;2023-11-19T14:37:56;32.70;;;15.10;;
57309;SDS011;43153;50.984;18.204;2023-11-19T14:40:26;26.80;;;13.80;;
57309;SDS011;43153;50.984;18.204;2023-11-19T14:42:53;35.40;;;15.40;;
57309;SDS011;43153;50.984;18.204;2023-11-19T14:45:25;37.70;;;16.80;;
57309;SDS011;43153;50.984;18.204;2023-11-19T14:47:52;28.80;;;15.10;;
57309;SDS011;43153;50.984;18.204;2023-11-19T14:50:25;29.30;;;14.30;;
57309;SDS011;43153;50.984;18.204;2023-11-19T14:52:54;37.50;;;18.10;;
57309;SDS011;43153;50.984;18.204;2023-11-19T14:55:23;29.50;;;14.30;;
57309;SDS011;43153;50.984;18.204;2023-11-19T14:57:52;28.20;;;15.90;;
57309;SDS011;43153;50.984;18.204;2023-11-19T15:00:18;32.00;;;16.10;;
57309;SDS011;43153;50.984;18.204;2023-11-19T15:02:44;33.10;;;15.90;;
57309;SDS011;43153;50.984;18.204;2023-11-19T15:05:14;33.00;;;16.90;;
57309;SDS011;43153;50.984;18.204;2023-11-19T15:07:41;35.30;;;15.80;;
57309;SDS011;43153;50.984;18.204;2023-11-19T15:10:10;31.70;;;14.90;;
57309;SDS011;43153;50.984;18.204;2023-11-19T15:12:39;30.00;;;16.00;;
57309;SDS011;43153;50.984;18.204;2023-11-19T15:15:09;31.70;;;15.50;;
57309;SDS011;43153;50.984;18.204;2023-11-19T15:17:38;32.10;;;14.80;;
57309;SDS011;43153;50.984;18.204;2023-11-19T15:20:04;30.10;;;15.30;;
57309;SDS011;43153;50.984;18.204;2023-11-19T15:22:33;32.90;;;15.80;;